createdAt,value
2018-04-08T00:02:03.756Z,12.23
2018-04-08T00:04:32.036Z,13.30
2018-04-08T00:06:59.547Z,8.93
2018-04-08T00:09:27.112Z,10.50
2018-04-08T00:11:54.653Z,8.97
2018-04-08T00:14:22.152Z,9.13
2018-04-08T00:16:49.708Z,7.67
2018-04-08T00:19:17.235Z,10.67
2018-04-08T00:21:44.735Z,12.73
2018-04-08T00:24:12.316Z,8.53
2018-04-08T00:26:39.820Z,8.33
2018-04-08T00:29:08.103Z,11.53
2018-04-08T00:31:35.631Z,9.60
2018-04-08T00:34:03.935Z,8.17
2018-04-08T00:36:32.457Z,6.97
2018-04-08T00:38:59.987Z,10.53
2018-04-08T00:41:27.531Z,8.50
2018-04-08T00:43:55.095Z,10.43
2018-04-08T00:46:22.743Z,11.17
2018-04-08T00:48:50.263Z,9.13
2018-04-08T00:51:17.803Z,10.10
2018-04-08T00:53:45.416Z,8.57
2018-04-08T00:56:12.930Z,9.60
2018-04-08T00:58:40.427Z,7.17
2018-04-08T01:01:09.300Z,9.37
2018-04-08T01:03:36.800Z,12.67
2018-04-08T01:06:04.679Z,6.47
2018-04-08T01:08:32.212Z,8.43
2018-04-08T01:11:00.487Z,9.83
2018-04-08T01:13:27.987Z,7.97
2018-04-08T01:15:55.532Z,9.17
2018-04-08T01:18:23.095Z,7.33
2018-04-08T01:20:50.644Z,9.90
2018-04-08T01:23:18.201Z,6.43
2018-04-08T01:25:45.732Z,9.53
2018-04-08T01:28:13.255Z,8.70
2018-04-08T01:30:40.792Z,6.30
2018-04-08T01:33:08.302Z,9.97
2018-04-08T01:35:35.956Z,11.30
2018-04-08T01:38:03.481Z,12.17
2018-04-08T01:40:30.983Z,7.57
2018-04-08T01:42:58.488Z,7.57
2018-04-08T01:45:26.023Z,8.27
2018-04-08T01:47:53.540Z,12.37
2018-04-08T01:50:21.052Z,13.77
2018-04-08T01:52:48.583Z,10.13
2018-04-08T01:55:16.149Z,12.63
2018-04-08T01:57:43.656Z,9.20
2018-04-08T02:00:11.227Z,9.50
2018-04-08T02:02:38.760Z,9.37
2018-04-08T02:05:07.104Z,8.37
2018-04-08T02:07:34.658Z,11.10
2018-04-08T02:10:02.189Z,10.60
2018-04-08T02:12:29.708Z,10.60
2018-04-08T02:14:57.244Z,10.43
2018-04-08T02:17:25.515Z,10.87
2018-04-08T02:19:53.037Z,11.10
2018-04-08T02:22:20.568Z,11.40
2018-04-08T02:24:48.864Z,8.97
2018-04-08T02:27:16.413Z,10.60
2018-04-08T02:29:44.688Z,9.47
2018-04-08T03:08:30.676Z,12.30
2018-04-08T03:10:58.216Z,14.63
2018-04-08T03:13:25.737Z,12.70
2018-04-08T03:15:53.293Z,16.07
2018-04-08T03:18:20.796Z,10.87
2018-04-08T03:20:49.162Z,16.83
2018-04-08T03:23:17.463Z,15.90
2018-04-08T03:25:44.983Z,13.90
2018-04-08T03:28:12.521Z,13.63
2018-04-08T03:30:40.045Z,12.63
2018-04-08T03:33:07.557Z,14.30
2018-04-08T03:35:35.084Z,15.67
2018-04-08T03:38:02.621Z,16.50
2018-04-08T03:40:30.139Z,10.97
2018-04-08T03:42:57.649Z,12.23
2018-04-08T03:45:25.183Z,15.10
2018-04-08T03:47:53.472Z,11.83
2018-04-08T03:50:21.777Z,12.97
2018-04-08T03:52:49.278Z,11.90
2018-04-08T03:55:16.829Z,14.83
2018-04-08T03:57:44.364Z,10.33
2018-04-08T04:00:11.880Z,13.57
2018-04-08T04:02:40.163Z,10.87
2018-04-08T04:05:07.788Z,13.87
2018-04-08T04:07:35.312Z,14.33
2018-04-08T04:10:02.848Z,12.67
2018-04-08T04:12:31.120Z,13.77
2018-04-08T04:14:58.641Z,13.43
2018-04-08T04:17:26.212Z,17.47
2018-04-08T04:20:05.351Z,14.10
2018-04-08T04:22:44.677Z,13.17
2018-04-08T04:25:25.828Z,15.43
2018-04-08T04:27:53.392Z,17.77
2018-04-08T04:30:20.899Z,13.90
2018-04-08T04:32:49.212Z,13.90
2018-04-08T04:35:16.820Z,12.67
2018-04-08T04:37:44.389Z,15.60
2018-04-08T04:40:11.873Z,15.10
2018-04-08T04:42:40.186Z,14.67
2018-04-08T04:45:08.466Z,16.10
2018-04-08T04:47:35.992Z,12.87
2018-04-08T04:50:03.589Z,17.07
2018-04-08T04:52:31.134Z,13.50
2018-04-08T04:54:58.662Z,15.03
2018-04-08T04:57:26.214Z,15.67
2018-04-08T04:59:53.723Z,15.03
2018-04-08T05:02:21.236Z,13.07
2018-04-08T05:04:48.830Z,14.17
2018-04-08T05:07:17.104Z,14.10
2018-04-08T05:09:44.616Z,13.27
2018-04-08T05:12:12.140Z,12.33
2018-04-08T05:14:39.653Z,14.97
2018-04-08T05:17:07.175Z,17.40
2018-04-08T05:19:34.704Z,13.20
2018-04-08T05:22:02.231Z,16.60
2018-04-08T05:24:29.750Z,15.03
2018-04-08T05:26:57.546Z,14.43
2018-04-08T05:29:25.052Z,12.93
2018-04-08T05:31:52.568Z,14.43
2018-04-08T05:34:20.108Z,13.57
2018-04-08T05:36:48.412Z,14.70
2018-04-08T05:39:15.930Z,12.80
2018-04-08T05:41:43.540Z,18.17
2018-04-08T05:44:11.097Z,14.40
2018-04-08T05:46:38.694Z,16.37
2018-04-08T05:49:06.344Z,13.37
2018-04-08T05:51:33.920Z,11.87
2018-04-08T05:54:02.193Z,16.77
2018-04-08T05:56:29.749Z,12.17
2018-04-08T05:58:58.056Z,15.83
2018-04-08T06:01:25.604Z,16.17
2018-04-08T06:03:53.143Z,15.03
2018-04-08T06:06:20.659Z,17.47
2018-04-08T06:08:48.188Z,15.67
2018-04-08T06:11:15.765Z,15.43
2018-04-08T06:13:43.289Z,17.27
2018-04-08T06:16:10.836Z,14.30
2018-04-08T06:18:38.403Z,14.33
2018-04-08T06:21:05.957Z,14.90
2018-04-08T06:23:33.574Z,13.73
2018-04-08T06:26:01.115Z,14.20
2018-04-08T06:28:28.624Z,14.50
2018-04-08T06:30:56.163Z,15.97
2018-04-08T06:33:23.737Z,14.90
2018-04-08T06:35:51.304Z,16.80
2018-04-08T06:38:18.815Z,14.50
2018-04-08T06:40:46.373Z,17.63
2018-04-08T06:43:13.883Z,15.63
2018-04-08T06:45:41.390Z,16.20
2018-04-08T06:48:09.687Z,22.07
2018-04-08T06:50:37.203Z,22.83
2018-04-08T06:53:04.717Z,18.07
2018-04-08T06:55:32.276Z,16.53
2018-04-08T06:57:59.784Z,17.93
2018-04-08T07:00:27.296Z,18.97
2018-04-08T07:02:55.578Z,17.33
2018-04-08T07:05:23.109Z,15.70
2018-04-08T07:07:50.632Z,18.37
2018-04-08T07:10:18.160Z,21.63
2018-04-08T07:12:45.680Z,22.03
2018-04-08T07:15:13.287Z,20.87
2018-04-08T07:17:40.780Z,22.67
2018-04-08T07:20:08.335Z,20.60
2018-04-08T07:22:35.865Z,23.87
2018-04-08T07:25:03.440Z,21.83
2018-04-08T07:27:30.960Z,18.77
2018-04-08T07:29:58.511Z,21.67
2018-04-08T07:32:26.034Z,22.40
2018-04-08T07:34:53.564Z,22.20
2018-04-08T07:37:21.101Z,13.83
2018-04-08T07:39:48.634Z,16.43
2018-04-08T07:42:16.248Z,23.03
2018-04-08T07:44:43.798Z,23.37
2018-04-08T07:47:11.324Z,23.20
2018-04-08T07:49:38.843Z,23.70
2018-04-08T07:52:06.392Z,21.53
2018-04-08T07:54:33.904Z,23.07
2018-04-08T07:57:02.289Z,22.87
2018-04-08T07:59:30.635Z,27.70
2018-04-08T08:01:58.155Z,24.97
2018-04-08T08:04:25.686Z,24.80
2018-04-08T08:06:53.243Z,26.40
2018-04-08T08:09:20.848Z,27.47
2018-04-08T08:11:48.367Z,29.53
2018-04-08T08:14:15.888Z,30.90
2018-04-08T08:16:43.427Z,25.40
2018-04-08T08:19:12.155Z,32.70
2018-04-08T08:21:39.672Z,48.37
2018-04-08T08:24:08.129Z,41.97
2018-04-08T08:44:52.148Z,27.27
2018-04-08T08:47:19.716Z,26.07
2018-04-08T08:49:47.269Z,26.43
2018-04-08T08:52:14.795Z,31.23
2018-04-08T08:54:42.315Z,25.50
2018-04-08T08:57:09.830Z,30.80
2018-04-08T08:59:37.360Z,23.97
2018-04-08T09:02:04.875Z,23.40
2018-04-08T09:04:32.414Z,31.33
2018-04-08T09:06:59.935Z,24.37
2018-04-08T09:09:28.234Z,22.73
2018-04-08T09:11:55.809Z,21.77
2018-04-08T09:14:23.387Z,27.93
2018-04-08T09:16:50.923Z,22.60
2018-04-08T09:19:19.300Z,28.03
2018-04-08T09:24:49.731Z,19.47
2018-04-08T09:27:17.280Z,19.37
2018-04-08T09:29:44.842Z,25.57
2018-04-08T09:32:12.402Z,22.13
2018-04-08T09:34:39.943Z,18.53
2018-04-08T09:37:07.492Z,17.00
2018-04-08T09:39:35.820Z,19.60
2018-04-08T09:42:03.415Z,20.23
2018-04-08T09:44:30.954Z,17.70
2018-04-08T09:46:58.489Z,16.10
2018-04-08T09:49:26.057Z,16.13
2018-04-08T09:51:54.334Z,20.13
2018-04-08T09:54:21.933Z,17.43
2018-04-08T09:56:49.460Z,21.13
2018-04-08T09:59:17.842Z,22.60
2018-04-08T10:01:51.381Z,19.93
2018-04-08T10:04:18.896Z,21.30
2018-04-08T10:06:46.461Z,18.30
2018-04-08T10:09:14.024Z,19.03
2018-04-08T10:11:42.341Z,16.00
2018-04-08T10:14:09.858Z,15.90
2018-04-08T10:16:38.196Z,19.97
2018-04-08T10:19:05.707Z,19.93
2018-04-08T10:21:34.011Z,18.60
2018-04-08T10:24:01.558Z,17.93
2018-04-08T10:26:29.109Z,14.57
2018-04-08T10:28:56.676Z,14.63
2018-04-08T10:31:24.208Z,14.87
2018-04-08T10:33:51.717Z,14.37
2018-04-08T10:36:20.003Z,19.77
2018-04-08T10:38:47.576Z,18.80
2018-04-08T10:41:15.096Z,16.63
2018-04-08T10:43:43.406Z,16.47
2018-04-08T10:46:11.735Z,16.47
2018-04-08T10:48:40.020Z,17.23
2018-04-08T10:51:07.545Z,15.63
2018-04-08T10:53:35.146Z,14.33
2018-04-08T10:56:02.667Z,11.23
2018-04-08T10:58:30.258Z,15.37
2018-04-08T11:00:58.574Z,13.73
2018-04-08T11:03:26.084Z,16.83
2018-04-08T11:05:53.621Z,18.13
2018-04-08T11:08:21.259Z,16.00
2018-04-08T11:10:48.770Z,14.37
2018-04-08T11:13:16.290Z,13.20
2018-04-08T11:15:44.603Z,13.43
2018-04-08T11:18:12.109Z,17.77
2018-04-08T11:20:39.656Z,15.13
2018-04-08T11:23:07.460Z,9.70
2018-04-08T11:25:35.164Z,9.63
2018-04-08T11:28:02.796Z,13.17
2018-04-08T11:30:30.391Z,13.17
2018-04-08T11:32:58.707Z,13.57
2018-04-08T11:35:26.285Z,16.67
2018-04-08T11:37:53.866Z,11.17
2018-04-08T11:40:21.442Z,11.53
2018-04-08T11:42:49.035Z,14.63
2018-04-08T11:45:16.580Z,9.60
2018-04-08T11:47:44.908Z,14.07
2018-04-08T11:50:12.539Z,10.60
2018-04-08T11:55:22.117Z,11.93
2018-04-08T11:57:49.648Z,13.23
2018-04-08T12:00:18.049Z,12.40
2018-04-08T12:02:45.634Z,12.63
2018-04-08T12:05:13.172Z,12.20
2018-04-08T12:07:40.708Z,12.73
2018-04-08T12:10:08.394Z,12.40
2018-04-08T12:12:35.948Z,11.37
2018-04-08T12:15:04.312Z,11.47
2018-04-08T12:17:31.825Z,12.30
2018-04-08T12:19:59.359Z,10.13
2018-04-08T12:22:26.918Z,10.83
2018-04-08T12:24:55.209Z,8.67
2018-04-08T12:27:22.730Z,12.70
2018-04-08T12:29:51.029Z,8.03
2018-04-08T12:32:18.613Z,6.63
2018-04-08T12:34:46.120Z,11.57
2018-04-08T12:37:13.700Z,10.53
2018-04-08T12:39:41.271Z,12.10
2018-04-08T12:42:08.816Z,12.00
2018-04-08T12:44:36.347Z,11.70
2018-04-08T12:47:03.890Z,9.83
2018-04-08T12:49:31.452Z,10.57
2018-04-08T12:51:59.005Z,9.50
2018-04-08T12:54:27.251Z,7.47
2018-04-08T12:56:54.744Z,8.27
2018-04-08T12:59:22.251Z,8.30
2018-04-08T13:01:50.585Z,8.63
2018-04-08T13:04:18.105Z,11.07
2018-04-08T13:06:46.381Z,6.93
2018-04-08T13:09:13.960Z,8.37
2018-04-08T13:11:41.507Z,11.73
2018-04-08T13:14:09.136Z,6.37
2018-04-08T13:16:36.656Z,11.20
2018-04-08T13:19:04.199Z,8.67
2018-04-08T13:21:31.733Z,11.00
2018-04-08T13:23:59.851Z,11.37
2018-04-08T13:26:27.364Z,9.87
2018-04-08T13:28:55.817Z,7.87
2018-04-08T13:31:24.133Z,10.87
2018-04-08T13:33:52.516Z,9.40
2018-04-08T13:36:20.815Z,12.63
2018-04-08T13:38:48.508Z,11.47
2018-04-08T13:41:16.269Z,11.27
2018-04-08T13:43:43.777Z,7.87
2018-04-08T13:46:12.203Z,7.80
2018-04-08T13:48:39.825Z,12.63
2018-04-08T13:51:08.119Z,10.33
2018-04-08T13:53:36.419Z,7.17
2018-04-08T13:56:03.959Z,8.63
2018-04-08T13:58:31.648Z,8.70
2018-04-08T14:00:59.250Z,12.37
2018-04-08T14:03:26.811Z,11.07
2018-04-08T14:05:54.356Z,9.83
2018-04-08T14:08:21.921Z,9.23
2018-04-08T14:10:49.435Z,10.37
2018-04-08T14:13:16.987Z,8.47
2018-04-08T14:15:45.332Z,8.13
2018-04-08T14:18:12.900Z,12.40
2018-04-08T14:20:40.448Z,9.90
2018-04-08T14:23:08.018Z,10.73
2018-04-08T14:25:35.544Z,11.60
2018-04-08T14:28:03.095Z,13.10
2018-04-08T14:30:30.608Z,8.57
2018-04-08T14:32:58.144Z,12.00
2018-04-08T14:35:25.873Z,7.83
2018-04-08T14:37:53.425Z,7.47
2018-04-08T14:40:20.956Z,8.50
2018-04-08T14:42:48.780Z,8.90
2018-04-08T14:45:16.329Z,10.63
2018-04-08T14:47:43.856Z,11.37
2018-04-08T14:50:12.155Z,11.47
2018-04-08T14:52:39.685Z,9.37
2018-04-08T14:55:08.034Z,10.67
2018-04-08T14:57:35.574Z,9.87
2018-04-08T15:00:03.138Z,9.83
2018-04-08T15:02:30.712Z,11.43
2018-04-08T15:04:58.308Z,9.30
2018-04-08T15:07:25.826Z,8.47
2018-04-08T15:09:55.022Z,9.97
2018-04-08T15:12:23.341Z,9.90
2018-04-08T15:14:50.873Z,11.47
2018-04-08T15:17:18.443Z,9.47
2018-04-08T15:19:45.979Z,10.43
2018-04-08T15:22:13.497Z,11.87
2018-04-08T15:24:41.800Z,12.10
2018-04-08T15:27:13.485Z,11.17
2018-04-08T15:29:41.073Z,10.40
2018-04-08T15:32:09.425Z,11.37
2018-04-08T15:34:39.640Z,11.00
2018-04-08T15:37:10.119Z,10.13
2018-04-08T15:39:38.539Z,9.47
2018-04-08T15:42:08.891Z,10.63
2018-04-08T15:44:36.442Z,11.17
2018-04-08T15:47:04.038Z,12.50
2018-04-08T15:49:31.567Z,12.10
2018-04-08T15:51:59.079Z,10.27
2018-04-08T15:54:28.107Z,11.27
2018-04-08T15:56:55.721Z,10.13
2018-04-08T15:59:23.336Z,11.37
2018-04-08T16:01:50.896Z,9.53
2018-04-08T16:04:18.596Z,8.97
2018-04-08T16:06:46.883Z,9.53
2018-04-08T16:09:14.479Z,11.73
2018-04-08T16:11:42.048Z,16.70
2018-04-08T16:14:09.565Z,12.43
2018-04-08T16:16:37.175Z,7.17
2018-04-08T16:19:04.685Z,7.83
2018-04-08T16:21:32.201Z,14.37
2018-04-08T16:23:59.737Z,8.33
2018-04-08T16:26:27.257Z,10.47
2018-04-08T16:28:54.849Z,8.03
2018-04-08T16:31:23.147Z,10.47
2018-04-08T16:33:50.673Z,8.63
2018-04-08T16:36:18.237Z,10.33
2018-04-08T16:38:45.761Z,8.83
2018-04-08T16:41:13.272Z,10.03
2018-04-08T16:43:41.543Z,6.70
2018-04-08T16:46:09.109Z,12.73
2018-04-08T16:48:36.624Z,9.80
2018-04-08T16:51:04.175Z,13.17
2018-04-08T16:53:31.708Z,10.17
2018-04-08T16:55:59.320Z,7.20
2018-04-08T16:58:26.821Z,7.37
2018-04-08T17:00:54.368Z,7.63
2018-04-08T17:03:22.669Z,9.23
2018-04-08T17:05:50.174Z,8.27
2018-04-08T17:08:17.723Z,10.67
2018-04-08T17:10:45.234Z,10.87
2018-04-08T17:13:13.523Z,10.03
2018-04-08T17:15:41.053Z,9.13
2018-04-08T17:18:08.564Z,7.47
2018-04-08T17:20:36.084Z,12.57
2018-04-08T17:23:05.024Z,9.33
2018-04-08T17:25:32.595Z,8.93
2018-04-08T17:28:00.126Z,10.50
2018-04-08T17:30:27.644Z,8.27
2018-04-08T17:32:55.211Z,6.20
2018-04-08T17:35:22.722Z,7.63
2018-04-08T17:37:52.645Z,9.10
2018-04-08T17:40:24.661Z,9.50
2018-04-08T17:42:53.462Z,12.03
2018-04-08T17:45:21.351Z,8.97
2018-04-08T17:47:50.562Z,8.00
2018-04-08T17:50:18.100Z,8.17
2018-04-08T17:52:45.660Z,7.93
2018-04-08T17:55:13.945Z,7.03
2018-04-08T17:57:41.649Z,8.13
2018-04-08T18:00:09.340Z,8.00
2018-04-08T18:02:37.316Z,7.77
2018-04-08T18:05:05.640Z,6.73
2018-04-08T18:07:33.193Z,5.97
2018-04-08T18:10:02.092Z,6.73
2018-04-08T18:12:29.638Z,10.60
2018-04-08T18:14:58.140Z,11.10
2018-04-08T18:17:25.772Z,10.40
2018-04-08T18:19:54.086Z,10.87
2018-04-08T18:22:21.613Z,12.30
2018-04-08T18:24:49.895Z,9.47
2018-04-08T18:27:17.465Z,35.80
2018-04-08T18:29:45.019Z,16.43
2018-04-08T18:32:12.547Z,17.83
2018-04-08T18:34:40.133Z,14.10
2018-04-08T18:37:07.829Z,10.23
2018-04-08T18:39:35.393Z,10.53
2018-04-08T18:42:02.981Z,12.87
2018-04-08T18:44:30.513Z,12.37
2018-04-08T18:46:58.073Z,9.90
2018-04-08T18:49:25.615Z,9.47
2018-04-08T18:51:53.250Z,9.77
2018-04-08T18:54:21.588Z,10.27
2018-04-08T18:56:49.133Z,7.63
2018-04-08T18:59:17.311Z,13.00
2018-04-08T19:01:44.856Z,14.13
2018-04-08T19:04:12.700Z,13.77
2018-04-08T19:06:41.790Z,14.43
2018-04-08T19:09:09.580Z,17.87
2018-04-08T19:11:37.180Z,12.23
2018-04-08T19:14:07.469Z,11.30
2018-04-08T19:26:15.238Z,14.60
2018-04-08T19:28:43.182Z,15.60
2018-04-08T19:31:12.561Z,21.77
2018-04-08T19:33:45.815Z,20.90
2018-04-08T19:36:15.048Z,21.37
2018-04-08T19:38:43.519Z,25.53
2018-04-08T19:41:14.515Z,29.10
2018-04-08T19:43:50.068Z,24.07
2018-04-08T19:46:19.484Z,27.77
2018-04-08T19:48:47.966Z,31.23
2018-04-08T19:51:17.546Z,22.10
2018-04-08T19:53:53.688Z,27.63
2018-04-08T19:56:21.372Z,26.40
2018-04-08T19:58:48.983Z,28.60
2018-04-08T20:01:16.557Z,30.63
2018-04-08T20:03:44.115Z,36.53
2018-04-08T20:06:12.134Z,26.73
2018-04-08T20:08:40.349Z,27.30
2018-04-08T20:11:14.190Z,30.97
2018-04-08T20:13:41.995Z,32.70
2018-04-08T20:16:16.724Z,32.93
2018-04-08T20:18:46.157Z,32.00
2018-04-08T20:21:13.883Z,30.23
2018-04-08T20:23:41.620Z,24.60
2018-04-08T20:26:09.472Z,30.97
2018-04-08T20:28:37.105Z,25.70
2018-04-08T20:31:04.657Z,31.27
2018-04-08T20:33:32.579Z,27.70
2018-04-08T20:36:00.370Z,23.10
2018-04-08T20:38:28.037Z,26.27
2018-04-08T20:40:55.733Z,25.10
2018-04-08T20:43:23.502Z,28.60
2018-04-08T20:45:51.133Z,28.43
2018-04-08T20:48:18.722Z,24.20
2018-04-08T20:50:47.234Z,21.13
2018-04-08T20:53:15.937Z,23.83
2018-04-08T20:55:43.580Z,25.83
2018-04-08T20:58:11.185Z,20.73
2018-04-08T21:00:38.951Z,25.03
2018-04-08T21:03:09.796Z,19.87
2018-04-08T21:05:50.005Z,20.73
2018-04-08T21:08:20.177Z,19.00
2018-04-08T21:10:48.088Z,24.93
2018-04-08T21:13:15.665Z,20.60
2018-04-08T21:18:16.750Z,24.70
2018-04-08T21:20:44.330Z,23.30
2018-04-08T21:23:19.961Z,23.30
2018-04-08T21:25:47.638Z,22.10
2018-04-08T21:28:15.196Z,25.73
2018-04-08T21:30:42.768Z,21.37
2018-04-08T21:33:11.108Z,24.30
2018-04-08T21:35:38.693Z,23.20
2018-04-08T21:38:06.236Z,24.70
2018-04-08T21:40:33.892Z,24.23
2018-04-08T21:43:03.284Z,24.67
2018-04-08T21:45:40.240Z,23.40
2018-04-08T21:48:07.846Z,23.53
2018-04-08T21:50:36.065Z,22.13
2018-04-08T21:53:04.413Z,26.63
2018-04-08T21:55:32.432Z,22.40
2018-04-08T21:58:00.861Z,23.80
2018-04-08T22:00:28.569Z,27.30
2018-04-08T22:02:57.014Z,25.70
2018-04-08T22:05:24.656Z,23.57
2018-04-08T22:07:52.221Z,21.27
2018-04-08T22:10:19.781Z,26.57
2018-04-08T22:12:49.636Z,24.60
2018-04-08T22:15:17.199Z,24.27
2018-04-08T22:17:45.787Z,25.60
2018-04-08T22:20:13.348Z,22.63
2018-04-08T22:22:41.645Z,21.77
2018-04-08T22:25:09.961Z,27.20
2018-04-08T22:27:37.569Z,23.73
2018-04-08T22:30:05.125Z,26.23
2018-04-08T22:32:33.432Z,28.40
2018-04-08T22:35:00.949Z,26.33
2018-04-08T22:37:28.476Z,27.23
2018-04-08T22:39:56.028Z,27.27
2018-04-08T22:42:23.584Z,33.23
2018-04-08T22:44:51.093Z,23.50
2018-04-08T22:47:18.627Z,27.40
2018-04-08T22:49:46.168Z,25.23
2018-04-08T22:52:13.725Z,28.53
2018-04-08T22:54:41.258Z,24.67
2018-04-08T22:57:09.547Z,29.63
2018-04-08T22:59:37.073Z,27.10
2018-04-08T23:02:04.634Z,31.13
2018-04-08T23:04:32.160Z,27.77
2018-04-08T23:06:59.667Z,28.67
2018-04-08T23:09:27.310Z,27.40
2018-04-08T23:11:54.832Z,32.00
2018-04-08T23:14:22.343Z,32.27
2018-04-08T23:16:49.955Z,31.83
2018-04-08T23:19:17.485Z,32.37
2018-04-08T23:21:45.724Z,33.27
2018-04-08T23:24:13.277Z,34.87
2018-04-08T23:26:40.808Z,32.30
2018-04-08T23:29:08.333Z,32.40
2018-04-08T23:31:35.897Z,33.67
2018-04-08T23:34:04.186Z,29.93
2018-04-08T23:36:32.456Z,29.03
2018-04-08T23:39:00.765Z,32.67
2018-04-08T23:41:28.295Z,41.70
2018-04-08T23:43:55.851Z,33.67
2018-04-08T23:46:23.396Z,33.97
2018-04-08T23:48:50.916Z,35.97
2018-04-08T23:51:18.434Z,36.97
2018-04-08T23:53:46.748Z,35.40
2018-04-08T23:56:14.258Z,35.40
2018-04-08T23:58:41.784Z,32.53
